Weather reports worldwide

Advertisment
Malaga,Cmt, Spain (8481): temperature & dewpoint: 30.03.2020 22:00:00 - 05.04.2020 22:00:00 (CEST)Malaga,Cmt, Spain (8481): wind speed & gusts: 30.03.2020 22:00:00 - 05.04.2020 22:00:00 (CEST)Malaga,Cmt, Spain (8481): wind direction: 30.03.2020 22:00:00 - 05.04.2020 22:00:00 (CEST)Malaga,Cmt, Spain (8481): reduced air pressure: 30.03.2020 22:00:00 - 05.04.2020 22:00:00 (CEST)Malaga,Cmt, Spain (8481): precipitation: 30.03.2020 22:00:00 - 05.04.2020 22:00:00 (CEST)
Date & Time tt [°C] td [°C] ff [km/h] ff [kn] fx [km/h] fx [kn] dd ppp [hPa] rr [mm]
05.04.2020 22:00:00 - - - - - - - - -
05.04.2020 21:00:00 15,6 12,0 9 5 14 8 SE 1021,1 0,0
05.04.2020 20:00:00 16,3 11,4 9 5 17 9 SE 1020,8 -
05.04.2020 19:00:00 17,2 11,0 8 5 21 11 ESE 1020,5 0,0
05.04.2020 18:00:00 17,9 11,2 13 7 23 13 SE 1020,2 0,0
05.04.2020 17:00:00 18,6 11,7 11 6 24 13 SE 1020,5 0,0
05.04.2020 16:00:00 18,5 10,3 13 7 27 15 SE 1020,8 0,0
05.04.2020 15:00:00 18,9 11,2 14 8 24 13 S 1021,0 0,0
05.04.2020 14:00:00 19,2 10,8 10 6 22 12 SSE 1021,5 -
05.04.2020 13:00:00 19,3 10,3 7 4 16 9 SSE 1021,7 0,0
05.04.2020 12:00:00 17,8 11,1 8 4 11 6 SSW 1021,7 0,0
05.04.2020 11:00:00 14,8 13,6 5 3 8 5 WSW 1021,6 0,0
05.04.2020 10:00:00 12,9 12,0 5 3 8 4 W 1021,1 0,0
05.04.2020 09:00:00 11,2 10,3 3 1 8 5 WSW 1020,9 0,0
05.04.2020 08:00:00 12,2 11,2 3 2 10 6 N 1020,3 -
05.04.2020 07:00:00 12,7 11,8 3 2 7 4 NW 1019,6 0,0
05.04.2020 06:00:00 12,3 11,0 1 1 5 3 WNW 1019,8 0,0
05.04.2020 05:00:00 13,0 11,8 2 1 4 2 NNW 1019,4 0,0
05.04.2020 04:00:00 13,0 11,8 0 0 4 2 N 1019,8 0,0
05.04.2020 03:00:00 13,2 11,9 0 0 8 4 NW 1020,0 0,0
05.04.2020 02:00:00 13,4 11,7 0 0 3 2 W 1020,2 -
05.04.2020 01:00:00 14,1 11,8 1 0 4 2 NE 1020,2 0,0
05.04.2020 00:00:00 14,7 11,9 0 0 0 0 N 1020,4 0,0
04.04.2020 23:00:00 15,2 11,6 0 0 3 1 N 1019,7 0,0
04.04.2020 22:00:00 15,8 11,2 1 1 10 5 E 1018,8 0,0
04.04.2020 21:00:00 16,2 10,9 6 3 18 10 S 1017,8 0,0
04.04.2020 20:00:00 16,9 11,0 12 7 24 13 S 1017,6 -
04.04.2020 19:00:00 16,6 11,1 18 10 27 15 S 1017,2 0,0
04.04.2020 18:00:00 17,2 9,6 15 8 30 16 ESE 1015,8 0,0
04.04.2020 17:00:00 15,8 11,6 16 9 38 21 E 1016,6 0,3
04.04.2020 16:00:00 16,5 11,7 14 7 22 12 ESE 1018,4 0,0
04.04.2020 15:00:00 17,0 10,9 12 6 29 16 ESE 1018,5 0,0
04.04.2020 14:00:00 17,5 10,9 11 6 25 13 SE 1018,1 -
04.04.2020 13:00:00 17,6 10,8 14 8 27 15 ESE 1017,7 0,0
04.04.2020 12:00:00 16,9 11,0 15 8 29 16 SE 1017,2 0,0
04.04.2020 11:00:00 16,1 11,4 13 7 26 14 ESE 1016,8 0,0
04.04.2020 10:00:00 15,8 11,8 10 5 16 8 SE 1016,6 0,0
04.04.2020 09:00:00 11,9 9,9 2 1 11 6 WSW 1016,7 0,0
04.04.2020 08:00:00 13,0 10,2 4 2 13 7 SE 1016,4 -
04.04.2020 07:00:00 13,0 10,0 6 3 13 7 SE 1016,4 0,0
04.04.2020 06:00:00 13,2 9,7 2 1 11 6 ESE 1016,5 0,0
04.04.2020 05:00:00 13,4 9,8 8 4 18 10 ESE 1017,0 0,0
04.04.2020 04:00:00 13,6 10,2 8 4 19 11 ESE 1017,5 0,0
04.04.2020 03:00:00 14,0 10,6 11 6 24 13 ESE 1018,0 0,0
04.04.2020 02:00:00 14,3 10,8 12 7 26 14 E 1018,2 -
04.04.2020 01:00:00 14,2 11,2 11 6 19 11 E 1018,7 0,0
04.04.2020 00:00:00 14,6 11,2 7 4 21 11 E 1019,0 0,0
03.04.2020 23:00:00 14,5 10,5 11 6 19 10 E 1018,6 0,0
03.04.2020 22:00:00 14,9 11,3 11 6 22 12 ESE 1017,8 0,0
03.04.2020 21:00:00 15,4 10,8 14 8 23 13 ESE 1017,4 0,0
03.04.2020 20:00:00 16,5 11,0 16 9 24 13 SE 1017,4 -
03.04.2020 19:00:00 17,0 10,9 16 9 27 14 ESE 1017,3 0,0
03.04.2020 18:00:00 17,0 11,0 19 11 29 16 SE 1017,5 0,0
03.04.2020 17:00:00 17,2 10,3 24 13 35 19 SE 1017,5 0,0
03.04.2020 16:00:00 17,5 9,4 21 11 32 17 ESE 1017,8 0,0
03.04.2020 15:00:00 18,2 10,8 17 9 28 15 SE 1018,1 0,0
03.04.2020 14:00:00 17,8 10,4 17 9 27 15 SE 1018,6 -
03.04.2020 13:00:00 17,1 10,3 16 9 26 14 ESE 1018,9 0,0
03.04.2020 12:00:00 18,1 11,2 10 5 21 11 SSE 1018,6 0,0
03.04.2020 11:00:00 16,7 8,7 7 4 16 8 ENE 1017,6 0,0
03.04.2020 10:00:00 12,5 8,4 11 6 20 11 W 1017,6 0,0
03.04.2020 09:00:00 12,2 7,3 10 5 16 9 WNW 1017,1 0,0
03.04.2020 08:00:00 11,7 7,6 6 3 15 8 NNW 1016,6 -
03.04.2020 07:00:00 11,2 7,8 8 4 14 7 NNW 1016,5 0,0
03.04.2020 06:00:00 11,0 7,6 2 1 10 5 NNE 1016,6 0,0
03.04.2020 05:00:00 10,9 7,4 3 1 11 6 WNW 1016,7 0,0
03.04.2020 04:00:00 11,5 7,0 4 2 11 6 NNW 1016,9 0,0
03.04.2020 03:00:00 11,9 6,8 3 2 16 9 SW 1017,4 0,0
03.04.2020 02:00:00 12,7 7,4 7 4 15 8 WNW 1017,0 -
03.04.2020 01:00:00 12,5 6,7 8 4 14 8 SW 1016,8 0,0
03.04.2020 00:00:00 13,3 6,7 7 4 20 11 NW 1016,3 0,0
02.04.2020 23:00:00 13,8 6,4 5 3 21 11 NW 1016,1 0,0
02.04.2020 22:00:00 14,4 6,2 10 5 23 12 WNW 1015,1 0,0
02.04.2020 21:00:00 15,3 5,8 6 3 18 10 WNW 1014,4 0,0
02.04.2020 20:00:00 16,0 6,4 10 5 27 14 WNW 1014,0 -
02.04.2020 19:00:00 14,3 8,9 9 5 15 8 SE 1014,0 0,0
02.04.2020 18:00:00 16,3 7,3 5 3 19 11 WNW 1013,3 0,0
02.04.2020 17:00:00 12,9 8,1 4 2 24 13 WSW 1013,6 0,9
02.04.2020 16:00:00 15,5 8,0 10 6 21 11 SW 1012,9 0,0
02.04.2020 15:00:00 15,0 9,2 3 2 15 8 SSW 1013,0 0,0
02.04.2020 14:00:00 13,6 10,0 3 2 14 8 SSE 1013,3 -
02.04.2020 13:00:00 13,0 8,5 6 3 10 5 S 1013,9 0,0
02.04.2020 12:00:00 13,7 8,5 5 3 10 6 SSE 1013,6 0,0
02.04.2020 11:00:00 11,7 10,4 3 2 12 6 WNW 1013,5 0,0
02.04.2020 10:00:00 9,3 7,8 5 3 11 6 W 1012,9 2,2
02.04.2020 09:00:00 9,2 7,0 4 2 27 15 WNW 1013,4 4,4
02.04.2020 08:00:00 12,6 9,6 5 3 12 6 ESE 1012,2 -
02.04.2020 07:00:00 12,2 8,7 5 3 10 5 E 1012,2 0,0
02.04.2020 06:00:00 11,2 9,4 2 1 7 4 ESE 1012,6 0,0
02.04.2020 05:00:00 10,7 8,8 1 0 14 7 N 1013,2 0,0
02.04.2020 04:00:00 11,3 9,0 7 4 10 5 NNE 1013,4 0,0
02.04.2020 03:00:00 11,1 8,1 5 3 8 5 WSW 1014,7 0,0
02.04.2020 02:00:00 12,1 8,3 0 0 3 2 N 1014,9 -
02.04.2020 01:00:00 12,7 7,6 0 0 8 4 N 1015,6 0,0
02.04.2020 00:00:00 13,9 7,1 1 1 13 7 NW 1015,6 0,0
01.04.2020 23:00:00 14,5 7,3 4 2 26 14 NW 1015,1 0,0
01.04.2020 22:00:00 15,2 5,9 12 7 22 12 W 1014,1 0,0
01.04.2020 21:00:00 16,0 7,3 9 5 14 8 WSW 1013,1 0,0
01.04.2020 20:00:00 18,0 9,6 6 4 13 7 SSE 1012,7 -
01.04.2020 19:00:00 18,1 9,9 9 5 20 11 E 1012,6 0,0
01.04.2020 18:00:00 17,6 11,0 9 5 18 10 NE 1013,0 0,0
01.04.2020 17:00:00 17,9 10,3 10 5 18 10 ESE 1013,0 0,0
01.04.2020 16:00:00 16,2 11,3 12 6 18 10 SE 1013,8 0,0
01.04.2020 15:00:00 15,7 11,4 10 5 22 12 NNE 1014,1 3,6
01.04.2020 14:00:00 18,4 12,1 4 2 17 9 SSW 1013,9 -
01.04.2020 13:00:00 16,6 13,6 2 1 9 5 SW 1014,8 0,0
01.04.2020 12:00:00 15,4 14,4 0 0 11 6 SW 1015,0 0,0
01.04.2020 11:00:00 14,1 13,4 3 1 9 5 W 1014,8 0,0
01.04.2020 10:00:00 12,7 11,9 4 2 8 4 W 1014,4 0,0
01.04.2020 09:00:00 12,3 11,6 1 0 8 4 NW 1013,6 0,0
01.04.2020 08:00:00 12,3 11,6 4 2 6 4 WNW 1013,1 -
01.04.2020 07:00:00 12,6 11,8 4 2 10 5 W 1012,8 0,0
01.04.2020 06:00:00 12,7 11,9 5 3 11 6 W 1012,8 0,0
01.04.2020 05:00:00 13,4 12,6 5 3 13 7 ENE 1012,7 0,0
01.04.2020 04:00:00 13,4 12,6 7 4 11 6 ENE 1012,6 0,0
01.04.2020 03:00:00 13,7 13,0 7 4 14 8 ENE 1013,2 0,0
01.04.2020 02:00:00 14,0 13,3 9 5 14 8 ENE 1012,9 -
01.04.2020 01:00:00 14,1 13,4 9 5 15 8 ENE 1012,7 0,0
01.04.2020 00:00:00 14,3 13,6 6 4 17 9 E 1012,5 0,0
31.03.2020 23:00:00 14,6 13,9 9 5 18 10 E 1011,9 0,3
31.03.2020 22:00:00 14,7 13,9 7 4 22 12 ESE 1011,5 0,0
31.03.2020 21:00:00 14,7 13,9 11 6 21 11 SE 1010,3 0,0
31.03.2020 20:00:00 15,1 14,3 10 5 21 11 SE 1009,6 -
31.03.2020 19:00:00 14,8 13,9 10 6 20 11 ESE 1009,5 1,0
31.03.2020 18:00:00 14,8 13,9 14 7 27 15 ESE 1009,4 0,5
31.03.2020 17:00:00 15,2 14,2 15 8 29 16 E 1008,6 0,1
31.03.2020 16:00:00 15,7 15,1 12 7 25 13 ESE 1008,7 0,0
31.03.2020 15:00:00 14,1 13,7 3 2 15 8 E 1009,4 1,4
31.03.2020 14:00:00 12,5 12,0 11 6 22 12 E 1009,5 -
31.03.2020 13:00:00 12,6 12,1 9 5 21 11 E 1009,3 19,1
31.03.2020 12:00:00 13,3 12,8 11 6 21 11 SE 1008,9 2,3
31.03.2020 11:00:00 13,4 13,0 10 5 27 15 WSW 1008,2 9,1
31.03.2020 10:00:00 13,1 12,6 5 3 48 26 NNW 1007,0 12,2
31.03.2020 09:00:00 13,0 12,5 16 9 44 24 SE 1006,3 11,7
31.03.2020 08:00:00 12,6 11,8 15 8 36 19 E 1006,4 -
31.03.2020 07:00:00 12,5 11,7 22 12 39 21 E 1006,6 0,2
31.03.2020 06:00:00 12,5 11,7 17 9 30 16 ESE 1006,9 0,1
31.03.2020 05:00:00 12,4 11,8 14 7 31 17 E 1008,1 2,1
31.03.2020 04:00:00 13,4 12,6 15 8 24 13 SE 1007,8 3,5
31.03.2020 03:00:00 13,9 13,2 8 4 19 10 SE 1008,1 4,6
31.03.2020 02:00:00 14,6 12,8 9 5 14 8 ESE 1008,8 -
31.03.2020 01:00:00 14,9 11,9 10 5 18 10 ESE 1008,8 0,0
31.03.2020 00:00:00 15,2 12,1 9 5 15 8 E 1009,1 0,0
30.03.2020 23:00:00 15,4 11,8 8 4 13 7 E 1009,7 0,0
30.03.2020 22:00:00 15,3 11,1 8 4 14 8 ESE 1009,5 0,0

tt = temperature
td = dewpoint
ff = wind speed
fx = gusts
dd = wind direction
ppp = reduced air pressure
rr = precipitation

Next stations